Time;durP1;ratioP1;P1;durP2;ratioP2;P2;SDS_P1;SDS_P2;PMS_P1;PMS_P2;Temp;Humidity;BMP_temperature;BMP_pressure;BME280_temperature;BME280_humidity;BME280_pressure;Samples;Min_cycle;Max_cycle;Signal;HPM_P1;HPM_P2
2023/06/21 00:00:45;;;;;;;2.38;1.60;;;;;;;30.98;38.46;101126.28;5031821;27;96874;-77
2023/06/21 00:03:12;;;;;;;3.22;1.70;;;;;;;30.97;38.56;101124.59;5040479;27;98047;-77
2023/06/21 00:05:39;;;;;;;2.22;1.80;;;;;;;30.97;38.47;101127.38;5043231;27;96517;-77
2023/06/21 00:08:06;;;;;;;2.47;1.75;;;;;;;30.97;38.67;101132.06;5035904;27;96649;-77
2023/06/21 00:10:33;;;;;;;1.85;1.60;;;;;;;30.96;38.67;101128.44;5018316;27;96815;-77
2023/06/21 00:13:00;;;;;;;1.92;1.58;;;;;;;30.96;38.51;101124.81;5048218;27;97602;-77
2023/06/21 00:15:27;;;;;;;1.90;1.60;;;;;;;30.96;38.55;101131.22;5036251;27;97918;-77
2023/06/21 00:17:53;;;;;;;2.10;1.90;;;;;;;30.96;38.48;101130.38;5035049;27;96865;-77
2023/06/21 00:20:20;;;;;;;1.60;1.50;;;;;;;30.96;38.41;101130.38;5035331;27;97095;-77
2023/06/21 00:22:47;;;;;;;2.13;1.52;;;;;;;30.96;38.66;101134.00;5046752;27;99848;-77
2023/06/21 00:25:14;;;;;;;1.80;1.50;;;;;;;30.95;38.42;101146.16;5048212;27;97567;-77
2023/06/21 00:27:44;;;;;;;2.15;1.70;;;;;;;30.95;38.68;101150.88;5053214;27;97146;-77
2023/06/21 00:30:11;;;;;;;1.73;1.63;;;;;;;30.95;38.52;101151.72;5046061;27;96730;-77
2023/06/21 00:32:38;;;;;;;1.75;1.60;;;;;;;30.95;38.52;101150.88;5052136;27;98359;-77
2023/06/21 00:35:06;;;;;;;2.35;1.98;;;;;;;30.96;38.64;101155.34;5052694;27;97262;-77
2023/06/21 00:37:33;;;;;;;2.33;1.83;;;;;;;30.94;38.47;101154.72;5043878;27;97075;-77
2023/06/21 00:40:00;;;;;;;2.22;2.03;;;;;;;30.95;38.65;101157.28;5043516;27;96888;-77
2023/06/21 00:42:27;;;;;;;1.95;1.70;;;;;;;30.93;38.60;101148.34;5047649;27;96586;-77
2023/06/21 00:44:53;;;;;;;2.35;1.70;;;;;;;30.94;38.75;101149.19;5036025;27;97475;-77
2023/06/21 00:47:20;;;;;;;1.95;1.60;;;;;;;30.93;38.51;101148.34;5034618;27;96877;-77
2023/06/21 00:49:46;;;;;;;2.38;1.63;;;;;;;30.94;38.84;101155.56;5019069;27;96909;-77
2023/06/21 00:52:14;;;;;;;2.00;1.67;;;;;;;30.94;38.75;101154.72;5033348;27;99607;-77
2023/06/21 00:54:41;;;;;;;1.67;1.58;;;;;;;30.94;38.45;101160.28;5035538;27;97830;-77
2023/06/21 00:57:08;;;;;;;1.90;1.48;;;;;;;30.93;38.63;101159.44;5032082;27;98655;-77
2023/06/21 00:59:35;;;;;;;1.70;1.50;;;;;;;30.92;38.50;101160.50;5052271;27;96795;-77
2023/06/21 01:02:02;;;;;;;2.47;1.85;;;;;;;30.92;38.79;101163.28;5046136;27;97108;-77
2023/06/21 01:04:34;;;;;;;2.83;1.60;;;;;;;30.93;38.69;101170.53;5037141;27;99151;-77
2023/06/21 01:07:28;;;;;;;1.75;1.63;;;;;;;30.93;38.66;101166.91;5052778;27;97910;-77
2023/06/21 01:10:08;;;;;;;2.27;1.80;;;;;;;30.90;38.77;101172.94;5033564;27;97183;-77
2023/06/21 01:12:54;;;;;;;2.00;1.80;;;;;;;30.91;38.65;101182.94;5051132;27;97262;-78
2023/06/21 01:15:35;;;;;;;2.55;1.75;;;;;;;30.90;38.52;101181.25;5050047;27;96772;-77
2023/06/21 01:18:04;;;;;;;2.80;2.20;;;;;;;30.88;38.89;101172.31;5041385;27;97101;-78
2023/06/21 01:20:34;;;;;;;2.03;1.73;;;;;;;30.90;38.64;101178.47;5051340;27;97369;-77
2023/06/21 01:23:31;;;;;;;1.73;1.40;;;;;;;30.89;38.67;101174.84;5040575;27;99660;-78
2023/06/21 01:26:18;;;;;;;1.90;1.70;;;;;;;30.87;38.72;101182.56;5039710;27;100732;-78
2023/06/21 01:29:06;;;;;;;2.28;1.60;;;;;;;30.87;38.56;101179.78;5033399;27;96836;-77
2023/06/21 01:31:34;;;;;;;1.88;1.60;;;;;;;30.87;38.71;101190.03;5048477;27;95847;-78
2023/06/21 01:34:04;;;;;;;3.00;1.77;;;;;;;30.86;38.66;101178.09;5051976;27;97476;-77
2023/06/21 01:36:32;;;;;;;1.42;1.33;;;;;;;30.87;38.96;101170.63;5037036;27;97556;-77
2023/06/21 01:38:59;;;;;;;1.95;1.75;;;;;;;30.86;38.72;101169.78;5052203;27;96622;-78
2023/06/21 01:41:26;;;;;;;1.48;1.38;;;;;;;30.86;38.77;101175.31;5051301;27;96934;-77
2023/06/21 01:43:56;;;;;;;1.92;1.50;;;;;;;30.86;38.77;101186.41;5051714;27;97220;-77
2023/06/21 01:46:26;;;;;;;1.95;1.40;;;;;;;30.87;38.56;101192.81;5050331;27;98268;-77
2023/06/21 01:48:54;;;;;;;2.17;1.67;;;;;;;30.87;38.60;101187.25;5052399;27;96765;-77
2023/06/21 01:51:22;;;;;;;2.80;1.70;;;;;;;30.88;38.78;101194.50;5049476;27;97257;-77
2023/06/21 01:53:48;;;;;;;1.95;1.58;;;;;;;30.87;38.71;101198.34;5049759;27;97804;-78
2023/06/21 01:56:17;;;;;;;1.90;1.52;;;;;;;30.87;38.76;101198.34;5048713;27;99770;-77
2023/06/21 01:58:46;;;;;;;1.92;1.70;;;;;;;30.86;38.60;101191.97;5049397;27;96706;-77
2023/06/21 02:01:13;;;;;;;1.70;1.42;;;;;;;30.86;38.51;101194.75;5048521;27;97924;-77
2023/06/21 02:03:44;;;;;;;1.65;1.50;;;;;;;30.86;38.66;101191.97;5046117;27;97636;-77
2023/06/21 02:06:13;;;;;;;1.70;1.60;;;;;;;30.86;38.71;101191.13;5050395;27;100202;-77
2023/06/21 02:08:40;;;;;;;1.70;1.60;;;;;;;30.86;38.46;101185.56;5036700;27;96841;-77
2023/06/21 02:11:07;;;;;;;1.70;1.52;;;;;;;30.85;38.60;101194.97;5052158;27;97161;-77
2023/06/21 02:13:36;;;;;;;1.88;1.52;;;;;;;30.85;38.78;101203.28;5050816;27;97382;-77
2023/06/21 02:16:03;;;;;;;2.42;1.65;;;;;;;30.85;38.65;101194.97;5051026;27;96599;-77
2023/06/21 02:18:29;;;;;;;1.70;1.60;;;;;;;30.85;38.71;101200.53;5050189;27;96722;-77
2023/06/21 02:20:57;;;;;;;2.10;1.60;;;;;;;30.85;38.58;101214.38;5049924;27;97237;-77
2023/06/21 02:23:24;;;;;;;2.38;1.98;;;;;;;30.84;38.33;101215.47;5048589;27;96963;-76
2023/06/21 02:25:51;;;;;;;1.73;1.63;;;;;;;30.85;38.46;101206.06;5049796;27;97170;-77
2023/06/21 02:28:17;;;;;;;2.10;1.90;;;;;;;30.84;38.54;101210.75;5049995;27;97155;-77
2023/06/21 02:30:44;;;;;;;2.13;1.92;;;;;;;30.84;38.58;101216.31;5049741;27;98026;-77
2023/06/21 02:33:10;;;;;;;1.90;1.52;;;;;;;30.84;38.42;101223.78;5051344;27;96845;-77
2023/06/21 02:35:37;;;;;;;1.85;1.50;;;;;;;30.84;38.73;101230.19;5051629;27;97087;-77
2023/06/21 02:38:04;;;;;;;1.75;1.60;;;;;;;30.84;38.34;101232.94;5051154;27;96774;-77
2023/06/21 02:40:31;;;;;;;1.80;1.48;;;;;;;30.83;38.46;101236.81;5049768;27;96893;-77
2023/06/21 02:42:59;;;;;;;1.70;1.60;;;;;;;30.84;38.40;101237.66;5048868;27;96823;-77
2023/06/21 02:45:26;;;;;;;1.70;1.55;;;;;;;30.84;38.44;101232.09;5049081;27;100464;-77
2023/06/21 02:47:54;;;;;;;1.85;1.60;;;;;;;30.83;38.51;101245.13;5036704;27;97782;-77
2023/06/21 02:50:21;;;;;;;2.00;1.80;;;;;;;30.83;38.58;101256.22;5049281;27;97023;-77
2023/06/21 02:52:47;;;;;;;1.98;1.52;;;;;;;30.84;38.68;101259.84;5047436;27;97737;-77
2023/06/21 02:55:16;;;;;;;1.85;1.70;;;;;;;30.83;38.49;101252.59;5049249;27;97285;-77
2023/06/21 02:57:43;;;;;;;2.15;1.65;;;;;;;30.82;38.59;101246.19;5049507;27;96777;-77
2023/06/21 03:00:18;;;;;;;2.17;1.80;;;;;;;30.84;38.57;101251.50;5048744;27;96708;-77
2023/06/21 03:02:45;;;;;;;2.10;1.65;;;;;;;30.83;38.47;101258.16;5033601;27;100804;-77
2023/06/21 03:05:12;;;;;;;2.10;1.55;;;;;;;30.81;38.58;101266.69;5044032;27;97751;-77
2023/06/21 03:07:43;;;;;;;1.80;1.70;;;;;;;30.82;38.51;101267.53;5048773;27;96644;-77
2023/06/21 03:10:15;;;;;;;1.73;1.63;;;;;;;30.81;38.48;101261.16;5048165;27;96724;-76
2023/06/21 03:12:42;;;;;;;2.00;1.80;;;;;;;30.81;38.65;101266.69;5031341;27;99210;-77
2023/06/21 03:15:12;;;;;;;2.03;1.50;;;;;;;30.81;38.45;101265.84;5046466;27;97539;-77
2023/06/21 03:17:40;;;;;;;1.70;1.60;;;;;;;30.81;38.51;101277.78;5046842;27;96977;-77
2023/06/21 03:20:12;;;;;;;1.77;1.60;;;;;;;30.81;38.26;101282.50;5043876;27;96901;-77
2023/06/21 03:22:45;;;;;;;2.55;1.92;;;;;;;30.81;38.51;101282.50;5043875;27;97637;-77
2023/06/21 03:25:14;;;;;;;2.53;1.40;;;;;;;30.81;38.90;101299.13;5032409;27;100348;-77
2023/06/21 03:27:44;;;;;;;2.47;1.65;;;;;;;30.79;38.71;101285.50;5030989;27;96729;-77
2023/06/21 03:30:11;;;;;;;1.70;1.60;;;;;;;30.80;38.68;101303.81;5049382;27;97195;-77
2023/06/21 03:32:46;;;;;;;1.98;1.65;;;;;;;30.79;38.58;101292.97;5032342;27;98552;-77
2023/06/21 03:35:17;;;;;;;1.90;1.70;;;;;;;30.80;38.41;101305.75;5032425;27;99135;-77
2023/06/21 03:37:47;;;;;;;2.10;1.88;;;;;;;30.78;38.64;101311.53;5048279;27;97015;-77
2023/06/21 03:40:16;;;;;;;1.98;1.65;;;;;;;30.78;38.40;101307.91;5052874;27;96792;-77
2023/06/21 03:42:44;;;;;;;1.70;1.50;;;;;;;30.79;38.41;101309.59;5051659;27;99348;-77
2023/06/21 03:45:12;;;;;;;1.63;1.40;;;;;;;30.79;38.55;101304.06;5035346;27;100497;-77
2023/06/21 03:47:43;;;;;;;1.80;1.58;;;;;;;30.78;38.63;101311.53;5052313;27;96591;-77
2023/06/21 03:50:11;;;;;;;2.10;1.90;;;;;;;30.77;38.30;101307.06;5052071;27;96714;-77
2023/06/21 03:52:40;;;;;;;1.67;1.58;;;;;;;30.77;38.10;101312.59;5051998;27;99013;-77
2023/06/21 03:55:07;;;;;;;2.05;1.70;;;;;;;30.78;38.42;101317.06;5050932;27;100106;-77
2023/06/21 03:57:34;;;;;;;1.60;1.50;;;;;;;30.77;38.55;101312.59;5049431;27;96904;-77
2023/06/21 04:00:04;;;;;;;1.90;1.70;;;;;;;30.78;38.58;101317.06;5051155;27;96719;-77
2023/06/21 04:02:41;;;;;;;1.92;1.73;;;;;;;30.76;38.36;101313.69;5047623;27;97381;-77
2023/06/21 04:05:10;;;;;;;1.77;1.67;;;;;;;30.77;38.49;101311.75;5050105;27;96829;-77
2023/06/21 04:07:40;;;;;;;2.47;2.00;;;;;;;30.77;38.31;101315.38;5036148;27;96772;-77
2023/06/21 04:10:08;;;;;;;2.10;1.80;;;;;;;30.77;38.61;101309.00;5052083;27;96791;-77
2023/06/21 04:12:36;;;;;;;2.00;1.80;;;;;;;30.76;38.49;101307.28;5053506;27;97992;-77
2023/06/21 04:15:04;;;;;;;1.90;1.70;;;;;;;30.76;38.63;101313.69;5052839;27;97000;-77
2023/06/21 04:17:31;;;;;;;1.73;1.48;;;;;;;30.75;38.47;101312.00;5052114;27;97386;-77
2023/06/21 04:19:58;;;;;;;2.58;2.00;;;;;;;30.76;38.46;101318.38;5051338;27;96893;-77
2023/06/21 04:22:26;;;;;;;2.10;1.70;;;;;;;30.76;38.53;101313.69;5050998;27;100454;-77
2023/06/21 04:24:53;;;;;;;2.10;1.90;;;;;;;30.76;38.46;101310.91;5050915;27;98820;-77
2023/06/21 04:27:22;;;;;;;2.55;1.60;;;;;;;30.76;38.48;101312.84;5050569;27;96846;-77
2023/06/21 04:29:49;;;;;;;1.98;1.77;;;;;;;30.76;38.27;101319.22;5053388;27;96718;-77
2023/06/21 04:32:15;;;;;;;1.85;1.60;;;;;;;30.76;38.55;101324.78;5053936;27;96745;-77
2023/06/21 04:34:43;;;;;;;1.95;1.60;;;;;;;30.76;38.66;101327.56;5052878;27;97775;-77
2023/06/21 04:37:10;;;;;;;1.88;1.65;;;;;;;30.75;38.41;101333.31;5053513;27;96617;-77
2023/06/21 04:39:36;;;;;;;1.90;1.70;;;;;;;30.76;38.55;101337.78;5052830;27;97270;-77
2023/06/21 04:42:03;;;;;;;2.00;1.80;;;;;;;30.76;38.56;101335.03;5053675;27;96870;-77
2023/06/21 04:44:30;;;;;;;2.33;1.80;;;;;;;30.75;38.14;101339.72;5051130;27;97429;-77
2023/06/21 04:46:59;;;;;;;1.90;1.70;;;;;;;30.76;38.65;101337.78;5051551;27;96761;-77
2023/06/21 04:49:26;;;;;;;2.20;1.83;;;;;;;30.76;38.32;101340.56;5048431;27;96935;-77
2023/06/21 04:51:57;;;;;;;2.05;1.80;;;;;;;30.75;38.25;101350.81;5049962;27;99810;-77
2023/06/21 04:54:24;;;;;;;2.10;1.83;;;;;;;30.75;38.22;101347.19;5050592;27;97229;-77
2023/06/21 04:56:51;;;;;;;1.85;1.60;;;;;;;30.74;38.70;101349.13;5053257;27;97090;-77
2023/06/21 04:59:18;;;;;;;1.83;1.60;;;;;;;30.75;38.39;101350.81;5049083;27;96788;-77
2023/06/21 05:01:45;;;;;;;2.20;1.95;;;;;;;30.74;38.49;101351.88;5050232;27;96831;-77
2023/06/21 05:04:12;;;;;;;1.80;1.70;;;;;;;30.75;38.50;101359.13;5040799;27;96770;-77
2023/06/21 05:06:40;;;;;;;1.90;1.70;;;;;;;30.74;38.49;101364.91;5046726;27;96974;-77
2023/06/21 05:09:08;;;;;;;1.98;1.70;;;;;;;30.74;38.41;101357.44;5051285;27;96877;-77
2023/06/21 05:11:36;;;;;;;3.22;1.75;;;;;;;30.75;38.48;101361.06;5049252;27;98932;-77
2023/06/21 05:14:03;;;;;;;2.28;2.00;;;;;;;30.74;38.48;101359.38;5033289;27;100682;-77
2023/06/21 05:16:30;;;;;;;1.90;1.75;;;;;;;30.74;38.43;101365.75;5047408;27;97167;-77
2023/06/21 05:18:57;;;;;;;2.15;1.65;;;;;;;30.74;38.56;101376.84;5052906;27;97044;-77
2023/06/21 05:21:23;;;;;;;1.70;1.55;;;;;;;30.73;38.42;101377.94;5048390;27;96704;-78
2023/06/21 05:23:50;;;;;;;2.00;1.60;;;;;;;30.73;38.14;101369.59;5049858;27;97184;-78
2023/06/21 05:26:16;;;;;;;2.33;1.70;;;;;;;30.74;38.39;101373.22;5050500;27;96624;-78
2023/06/21 05:28:43;;;;;;;2.03;1.83;;;;;;;30.74;38.22;101373.22;5049190;27;96806;-78
2023/06/21 05:31:10;;;;;;;2.00;1.80;;;;;;;30.74;38.24;101376.84;5034741;27;100043;-78
2023/06/21 05:33:36;;;;;;;1.90;1.70;;;;;;;30.74;38.50;101384.31;5055190;27;96648;-78
2023/06/21 05:36:03;;;;;;;1.83;1.73;;;;;;;30.73;38.54;101383.47;5054846;27;96767;-78
2023/06/21 05:38:30;;;;;;;2.33;2.13;;;;;;;30.74;38.51;101378.78;5035535;27;96902;-78
2023/06/21 05:40:56;;;;;;;3.28;1.98;;;;;;;30.74;38.41;101382.41;5035533;27;98341;-77
2023/06/21 05:43:23;;;;;;;2.13;1.92;;;;;;;30.74;38.36;101373.22;5044079;27;96755;-78
2023/06/21 05:45:49;;;;;;;2.30;1.70;;;;;;;30.73;38.12;101380.69;5049070;27;96785;-78
2023/06/21 05:48:17;;;;;;;2.45;1.90;;;;;;;30.74;38.48;101378.78;5040535;27;97219;-78
2023/06/21 05:50:44;;;;;;;2.20;2.00;;;;;;;30.73;38.55;101380.69;5047724;27;98343;-78
2023/06/21 05:53:11;;;;;;;2.03;1.83;;;;;;;30.74;38.29;101398.19;5050315;27;97369;-78
2023/06/21 05:55:37;;;;;;;2.10;1.90;;;;;;;30.73;38.59;101397.34;5047723;27;96738;-78
2023/06/21 05:58:05;;;;;;;2.08;1.77;;;;;;;30.74;38.54;101398.19;5032543;27;96969;-78
2023/06/21 06:00:31;;;;;;;2.42;2.17;;;;;;;30.73;38.44;101402.88;5036918;27;97282;-78
2023/06/21 06:02:58;;;;;;;2.17;1.98;;;;;;;30.73;38.14;101411.19;5033097;27;96873;-78
2023/06/21 06:05:25;;;;;;;2.42;2.22;;;;;;;30.73;38.05;101413.97;5040718;27;96865;-78
2023/06/21 06:07:51;;;;;;;3.15;2.40;;;;;;;30.72;38.15;101420.59;5051108;27;96802;-78
2023/06/21 06:10:18;;;;;;;2.28;2.08;;;;;;;30.74;38.51;101425.91;5039791;27;97072;-78
2023/06/21 06:12:44;;;;;;;2.40;2.20;;;;;;;30.74;38.25;101424.00;5046126;27;96656;-78
2023/06/21 06:15:11;;;;;;;2.30;2.10;;;;;;;30.74;38.48;101431.47;5046757;27;97235;-78
2023/06/21 06:17:38;;;;;;;2.85;2.50;;;;;;;30.74;38.31;101435.06;5043772;27;96852;-78
2023/06/21 06:20:06;;;;;;;3.95;2.70;;;;;;;30.74;38.48;101425.91;5047253;27;96836;-78
2023/06/21 06:22:35;;;;;;;2.83;2.63;;;;;;;30.74;38.47;101426.75;5047312;27;96887;-78
2023/06/21 06:25:02;;;;;;;2.90;2.63;;;;;;;30.73;38.27;101430.63;5033888;27;97274;-78
2023/06/21 06:27:29;;;;;;;3.05;2.63;;;;;;;30.74;38.53;101426.75;5042022;27;97150;-78
2023/06/21 06:29:56;;;;;;;2.80;2.50;;;;;;;30.74;38.41;101440.63;5047109;27;97801;-78
2023/06/21 06:32:23;;;;;;;3.67;2.95;;;;;;;30.73;38.62;101436.16;5054490;27;96660;-78
2023/06/21 06:34:50;;;;;;;3.08;2.78;;;;;;;30.73;38.61;101441.69;5054968;27;96842;-78
2023/06/21 06:37:16;;;;;;;3.38;3.03;;;;;;;30.74;38.54;101448.09;5038334;27;97020;-78
2023/06/21 06:39:49;;;;;;;3.08;2.85;;;;;;;30.73;38.54;101447.25;5054573;27;96608;-78
2023/06/21 06:42:15;;;;;;;3.55;3.08;;;;;;;30.73;38.55;101447.25;5054467;27;97319;-78
2023/06/21 06:44:43;;;;;;;3.35;3.05;;;;;;;30.75;38.55;101458.13;5053782;27;96740;-78
2023/06/21 06:47:11;;;;;;;3.25;2.80;;;;;;;30.75;38.45;101458.13;5055220;27;96817;-78
2023/06/21 06:49:37;;;;;;;4.10;3.00;;;;;;;30.74;38.48;101461.97;5051305;27;96761;-78
2023/06/21 06:52:05;;;;;;;4.75;3.13;;;;;;;30.74;38.60;101461.97;5054883;27;96646;-78
2023/06/21 06:54:32;;;;;;;3.72;3.42;;;;;;;30.73;38.46;101474.13;5053028;27;96846;-78
2023/06/21 06:56:59;;;;;;;3.22;2.85;;;;;;;30.74;38.50;101470.28;5055095;27;96709;-78
2023/06/21 06:59:25;;;;;;;3.40;3.10;;;;;;;30.74;38.33;101473.06;5053918;27;96900;-78
2023/06/21 07:01:55;;;;;;;3.17;2.88;;;;;;;30.74;38.38;101465.59;5039078;27;100447;-78
2023/06/21 07:04:22;;;;;;;3.55;3.25;;;;;;;30.73;38.44;101476.91;5047205;27;96746;-78
2023/06/21 07:06:49;;;;;;;3.80;3.50;;;;;;;30.73;38.42;101483.28;5050987;27;96732;-78
2023/06/21 07:09:16;;;;;;;3.40;3.10;;;;;;;30.73;38.71;101486.06;5042293;27;96952;-78
2023/06/21 07:11:43;;;;;;;3.92;3.53;;;;;;;30.74;38.48;101489.69;5046629;27;96656;-78
2023/06/21 07:14:09;;;;;;;3.85;3.55;;;;;;;30.74;38.87;101492.47;5031960;27;97206;-78
2023/06/21 07:16:40;;;;;;;3.90;3.47;;;;;;;30.74;38.53;101493.31;5032751;27;96790;-78
2023/06/21 07:19:07;;;;;;;4.53;4.13;;;;;;;30.73;38.73;101483.28;5045432;27;97658;-78
2023/06/21 07:21:34;;;;;;;4.13;3.67;;;;;;;30.74;38.64;101489.69;5036167;27;96966;-78
2023/06/21 07:24:00;;;;;;;4.43;4.05;;;;;;;30.74;38.81;101487.75;5016313;27;96771;-78
2023/06/21 07:26:27;;;;;;;3.88;3.47;;;;;;;30.74;38.71;101487.75;5033434;27;96743;-78
2023/06/21 07:28:54;;;;;;;4.45;4.00;;;;;;;30.74;38.59;101496.09;5032751;27;97709;-78
2023/06/21 07:31:20;;;;;;;3.88;3.58;;;;;;;30.75;38.65;101492.25;5048288;27;96834;-78
2023/06/21 07:33:48;;;;;;;4.30;3.90;;;;;;;30.76;38.71;101498.63;5053402;27;96767;-78
2023/06/21 07:36:15;;;;;;;4.15;3.75;;;;;;;30.76;38.83;101495.84;5039792;27;96848;-78
2023/06/21 07:38:46;;;;;;;3.95;3.55;;;;;;;30.75;38.60;101495.00;5031225;27;97983;-78
2023/06/21 07:41:13;;;;;;;4.30;3.90;;;;;;;30.75;38.84;101489.47;5032777;27;97716;-78
2023/06/21 07:43:40;;;;;;;4.93;4.40;;;;;;;30.76;38.92;101488.38;5040683;27;96918;-78
2023/06/21 07:46:07;;;;;;;4.28;3.83;;;;;;;30.76;38.65;101485.63;5050266;27;98505;-78
2023/06/21 07:48:41;;;;;;;4.30;3.90;;;;;;;30.75;38.76;101494.16;5027504;27;99707;-78
2023/06/21 07:51:09;;;;;;;4.05;3.67;;;;;;;30.76;38.93;101502.25;5035334;27;97554;-78
2023/06/21 07:53:35;;;;;;;4.60;4.10;;;;;;;30.76;38.27;101504.19;5044641;27;97414;-78
2023/06/21 07:56:02;;;;;;;4.95;4.45;;;;;;;30.77;38.92;101505.88;5051798;27;97012;-78
2023/06/21 07:58:29;;;;;;;4.55;4.13;;;;;;;30.77;38.97;101512.28;5052151;27;97676;-78
2023/06/21 08:00:55;;;;;;;4.30;3.90;;;;;;;30.77;38.98;101503.94;5051679;27;96724;-78
2023/06/21 08:03:22;;;;;;;4.50;4.10;;;;;;;30.77;38.85;101509.50;5052019;27;96687;-78
2023/06/21 08:05:48;;;;;;;4.47;4.00;;;;;;;30.78;39.14;101510.34;5053711;27;96804;-78
2023/06/21 08:08:17;;;;;;;4.50;4.10;;;;;;;30.79;38.81;101520.38;5037731;27;98075;-78
2023/06/21 08:10:44;;;;;;;4.47;4.07;;;;;;;30.78;38.93;101519.50;5039793;27;96711;-78
2023/06/21 08:13:10;;;;;;;4.45;3.97;;;;;;;30.78;38.82;101516.75;5051450;27;96699;-78
2023/06/21 08:15:37;;;;;;;4.57;4.10;;;;;;;30.78;38.71;101513.97;5033357;27;96838;-78
2023/06/21 08:18:04;;;;;;;4.57;4.18;;;;;;;30.78;38.92;101513.97;5046660;27;97419;-78
2023/06/21 08:20:33;;;;;;;4.38;3.97;;;;;;;30.79;39.02;101517.59;5033683;27;96803;-78
2023/06/21 08:23:00;;;;;;;4.80;4.30;;;;;;;30.79;38.69;101520.38;5047506;27;96620;-78
2023/06/21 08:25:28;;;;;;;4.45;4.05;;;;;;;30.79;38.76;101524.00;5034758;27;97286;-78
2023/06/21 08:27:56;;;;;;;4.47;4.07;;;;;;;30.79;38.88;101529.53;5036956;27;97727;-78
2023/06/21 08:30:22;;;;;;;4.38;3.97;;;;;;;30.80;38.84;101524.84;5042476;27;96744;-78
2023/06/21 08:32:49;;;;;;;4.93;3.65;;;;;;;30.80;39.08;101539.56;5028387;27;96662;-78
2023/06/21 08:35:16;;;;;;;4.10;3.70;;;;;;;30.80;39.04;101536.78;5048026;27;96809;-78
2023/06/21 08:37:54;;;;;;;4.40;4.00;;;;;;;30.81;38.71;101530.16;5042084;27;98147;-78
2023/06/21 08:40:27;;;;;;;4.30;3.90;;;;;;;30.80;38.92;101539.56;5038594;27;98068;-78
2023/06/21 08:42:53;;;;;;;4.43;4.03;;;;;;;30.81;39.01;101534.84;5043297;27;96712;-78
2023/06/21 08:45:21;;;;;;;4.20;3.80;;;;;;;30.80;38.96;101539.56;5038518;27;96759;-78
2023/06/21 08:47:49;;;;;;;4.10;3.70;;;;;;;30.81;39.01;101543.19;5039080;27;96759;-78
2023/06/21 08:50:18;;;;;;;4.20;3.80;;;;;;;30.81;39.12;101541.25;5039067;27;97314;-78
2023/06/21 08:52:46;;;;;;;4.57;4.18;;;;;;;30.81;39.01;101548.72;5033110;27;97230;-78
2023/06/21 08:55:15;;;;;;;4.40;3.47;;;;;;;30.82;39.02;101544.88;5037312;27;96916;-78
2023/06/21 08:57:55;;;;;;;3.83;3.53;;;;;;;30.82;39.00;101540.19;5037254;27;97598;-78
2023/06/21 09:00:28;;;;;;;4.00;3.70;;;;;;;30.82;38.92;101540.19;5039130;27;100323;-78
2023/06/21 09:03:26;;;;;;;4.30;3.90;;;;;;;30.82;38.90;101545.72;5036656;27;97014;-78
2023/06/21 09:06:06;;;;;;;4.20;3.80;;;;;;;30.82;38.87;101544.88;5008904;27;96828;-78
2023/06/21 09:08:33;;;;;;;5.40;4.28;;;;;;;30.81;38.99;101541.25;5050087;27;98845;-78
2023/06/21 09:11:00;;;;;;;4.05;3.65;;;;;;;30.82;38.97;101544.88;5041080;27;99007;-78
2023/06/21 09:13:28;;;;;;;4.30;3.90;;;;;;;30.82;39.26;101542.94;5036020;27;96820;-78
2023/06/21 09:15:55;;;;;;;4.10;3.70;;;;;;;30.83;38.75;101543.78;5035832;27;96834;-78
2023/06/21 09:18:23;;;;;;;4.30;3.53;;;;;;;30.83;39.13;101541.88;5035686;27;96862;-78
2023/06/21 09:20:50;;;;;;;3.83;3.47;;;;;;;30.83;39.14;101552.13;5035452;27;97685;-78
2023/06/21 09:23:17;;;;;;;4.40;4.00;;;;;;;30.83;39.08;101543.78;5034371;27;97360;-78
2023/06/21 09:25:44;;;;;;;4.07;3.70;;;;;;;30.83;39.03;101552.97;5035533;27;96572;-78
2023/06/21 09:28:11;;;;;;;3.75;3.45;;;;;;;30.84;39.23;101554.66;5041474;27;97985;-78
2023/06/21 09:30:39;;;;;;;4.28;3.88;;;;;;;30.84;38.97;101560.22;5049417;27;96905;-78
2023/06/21 09:33:06;;;;;;;3.95;3.50;;;;;;;30.83;39.03;101558.50;5039531;27;98453;-78
2023/06/21 09:35:33;;;;;;;4.30;3.90;;;;;;;30.85;39.13;101552.75;5033171;27;96742;-78
2023/06/21 09:37:59;;;;;;;3.80;3.45;;;;;;;30.85;39.03;101552.75;5035487;27;98863;-78
2023/06/21 09:40:26;;;;;;;4.22;3.83;;;;;;;30.85;39.18;101561.06;5045005;27;97790;-78
2023/06/21 09:42:53;;;;;;;3.95;3.63;;;;;;;30.84;39.17;101563.00;5034835;27;96936;-78
2023/06/21 09:45:20;;;;;;;3.75;3.40;;;;;;;30.86;39.25;101560.00;5034720;27;96858;-78
2023/06/21 09:47:47;;;;;;;3.72;3.42;;;;;;;30.85;38.90;101559.13;5039076;27;97196;-78
2023/06/21 09:50:13;;;;;;;3.85;3.55;;;;;;;30.85;39.10;101567.47;5043745;27;98816;-78
2023/06/21 09:52:42;;;;;;;3.90;3.60;;;;;;;30.87;39.18;101570.00;5035717;27;97161;-78
2023/06/21 09:55:13;;;;;;;3.50;3.20;;;;;;;30.87;39.29;101576.41;5043447;27;97268;-78
2023/06/21 09:57:39;;;;;;;3.97;3.53;;;;;;;30.86;39.23;101577.47;5035748;27;98509;-78
2023/06/21 10:00:07;;;;;;;3.70;3.40;;;;;;;30.87;39.17;101575.56;5016325;28;98729;-78
2023/06/21 10:02:41;;;;;;;3.90;3.60;;;;;;;30.87;38.88;101572.78;5034681;27;96736;-78
2023/06/21 10:05:19;;;;;;;4.57;4.07;;;;;;;30.87;38.90;101570.84;5048371;27;96773;-78
2023/06/21 10:07:47;;;;;;;4.22;3.50;;;;;;;30.85;38.85;101570.22;5054566;27;96875;-79
2023/06/21 10:10:14;;;;;;;3.75;3.40;;;;;;;30.86;38.88;101571.94;5048754;27;97281;-78
2023/06/21 10:12:54;;;;;;;3.50;3.20;;;;;;;30.88;38.95;101571.72;5046194;27;96753;-78
2023/06/21 10:15:23;;;;;;;4.15;3.30;;;;;;;30.87;39.11;101576.41;5041903;27;96744;-79
2023/06/21 10:17:52;;;;;;;3.70;3.40;;;;;;;30.86;39.18;101580.25;5039403;27;96951;-78
2023/06/21 10:20:32;;;;;;;3.65;3.35;;;;;;;30.86;38.84;101574.72;5033936;27;97582;-78
2023/06/21 10:23:02;;;;;;;3.50;3.20;;;;;;;30.87;39.18;101584.72;5045592;27;96764;-78
2023/06/21 10:25:30;;;;;;;3.63;3.33;;;;;;;30.86;38.87;101585.81;5034431;27;96848;-78
2023/06/21 10:28:00;;;;;;;3.35;3.03;;;;;;;30.88;39.11;101585.56;5034686;27;96907;-79
2023/06/21 10:30:28;;;;;;;4.18;3.40;;;;;;;30.88;38.82;101594.75;5039300;27;97405;-78
2023/06/21 10:33:00;;;;;;;3.42;3.13;;;;;;;30.88;39.04;101591.97;5038517;27;96802;-78
2023/06/21 10:35:27;;;;;;;3.75;3.45;;;;;;;30.88;39.03;101594.75;5032762;27;96836;-78
2023/06/21 10:38:18;;;;;;;3.60;3.30;;;;;;;30.89;39.09;101595.59;5034006;27;97774;-79
2023/06/21 10:40:45;;;;;;;3.55;3.25;;;;;;;30.86;38.90;101596.91;5032452;27;97460;-79
2023/06/21 10:43:13;;;;;;;3.17;2.88;;;;;;;30.87;39.02;101598.59;5051832;27;96809;-79
2023/06/21 10:45:40;;;;;;;3.03;2.83;;;;;;;30.87;39.08;101597.75;5046756;27;96768;-79
2023/06/21 10:48:08;;;;;;;3.00;2.70;;;;;;;30.89;39.09;101592.81;5049140;27;96858;-78
2023/06/21 10:50:35;;;;;;;3.35;3.05;;;;;;;30.89;38.81;101603.91;5046469;27;97288;-79
2023/06/21 10:53:04;;;;;;;3.28;2.97;;;;;;;30.87;38.73;101604.13;5054144;27;96609;-78
2023/06/21 10:55:31;;;;;;;3.50;3.08;;;;;;;30.89;38.86;101606.69;5047138;27;96906;-79
2023/06/21 10:57:59;;;;;;;3.20;2.90;;;;;;;30.89;38.89;101613.09;5048645;27;99626;-78
2023/06/21 11:00:27;;;;;;;2.65;2.42;;;;;;;30.88;38.89;101611.38;5048799;27;97574;-78
2023/06/21 11:02:55;;;;;;;3.28;2.92;;;;;;;30.89;38.78;101610.31;5049674;27;96728;-78
2023/06/21 11:05:23;;;;;;;3.10;2.60;;;;;;;30.89;39.05;101602.00;5046905;27;97025;-77
2023/06/21 11:08:01;;;;;;;3.20;2.90;;;;;;;30.90;38.65;101614.78;5050796;27;96929;-78
2023/06/21 11:10:43;;;;;;;3.50;3.20;;;;;;;30.90;38.67;101620.34;5049260;27;96764;-78
2023/06/21 11:13:10;;;;;;;2.97;2.67;;;;;;;30.89;38.82;101612.22;5050036;27;96695;-77
2023/06/21 11:15:39;;;;;;;2.95;2.70;;;;;;;30.89;38.99;101610.31;5041057;27;96849;-77
2023/06/21 11:18:08;;;;;;;3.03;2.83;;;;;;;30.89;38.95;101615.84;5046049;27;96784;-78
2023/06/21 11:20:46;;;;;;;3.20;2.90;;;;;;;30.90;38.88;101614.78;5042420;27;96994;-78
2023/06/21 11:23:18;;;;;;;2.80;2.50;;;;;;;30.90;38.87;101616.72;5021081;27;97152;-77
2023/06/21 11:26:14;;;;;;;3.60;3.00;;;;;;;30.90;38.83;101625.88;5052135;27;96773;-78
2023/06/21 11:28:46;;;;;;;3.22;2.97;;;;;;;30.89;38.75;101620.56;5027763;27;97034;-78
2023/06/21 11:31:17;;;;;;;2.92;2.63;;;;;;;30.89;38.71;101626.09;5039272;27;99210;-78